createdAt,value
2022-12-16T00:01:06.204Z,109.60
2022-12-16T00:04:07.948Z,103.70
2022-12-16T00:07:13.332Z,103.80
2022-12-16T00:10:15.288Z,100.50
2022-12-16T00:16:20.655Z,102.80
2022-12-16T00:19:22.386Z,105.40
2022-12-16T00:25:25.694Z,98.60
2022-12-16T00:28:27.787Z,106.20
2022-12-16T00:31:29.576Z,105.10
2022-12-16T00:37:32.900Z,112.20
2022-12-16T00:40:34.897Z,101.50
2022-12-16T00:43:36.809Z,106.20
2022-12-16T00:46:38.609Z,105.40
2022-12-16T00:49:43.450Z,115.90
2022-12-16T00:52:45.230Z,109.70
2022-12-16T00:55:47.529Z,106.20
2022-12-16T00:58:49.362Z,102.80
2022-12-16T01:01:51.885Z,115.20
2022-12-16T01:04:54.142Z,102.80
2022-12-16T01:07:57.385Z,109.00
2022-12-16T01:11:00.112Z,99.30
2022-12-16T01:14:01.938Z,103.90
2022-12-16T01:20:06.147Z,112.90
2022-12-16T01:23:08.171Z,107.60
2022-12-16T01:26:10.650Z,97.40
2022-12-16T01:29:12.386Z,98.20
2022-12-16T01:32:16.168Z,102.20
2022-12-16T01:35:50.812Z,106.10
2022-12-16T01:38:42.499Z,97.70
2022-12-16T01:41:44.247Z,105.50
2022-12-16T01:47:48.596Z,106.50
2022-12-16T01:50:50.665Z,103.10
2022-12-16T01:53:58.193Z,100.50
2022-12-16T01:57:07.169Z,101.30
2022-12-16T02:00:10.539Z,96.00
2022-12-16T02:03:12.370Z,96.40
2022-12-16T02:09:16.660Z,95.60
2022-12-16T02:12:46.187Z,99.70
2022-12-16T02:16:16.963Z,100.50
2022-12-16T02:19:38.421Z,99.20
2022-12-16T02:23:10.816Z,100.50
2022-12-16T02:26:37.249Z,99.30
2022-12-16T02:30:05.003Z,98.00
2022-12-16T02:33:13.253Z,96.80
2022-12-16T02:36:30.397Z,80.90
2022-12-16T02:39:35.936Z,97.30
2022-12-16T02:43:04.546Z,90.10
2022-12-16T02:46:07.662Z,98.50
2022-12-16T02:49:32.819Z,95.30
2022-12-16T02:52:35.227Z,102.00
2022-12-16T02:56:15.833Z,104.80
2022-12-16T02:59:40.341Z,99.40
2022-12-16T03:02:49.590Z,99.70
2022-12-16T03:05:52.718Z,95.60
2022-12-16T03:08:57.203Z,91.50
2022-12-16T03:12:00.608Z,89.40
2022-12-16T03:15:02.963Z,86.30
2022-12-16T03:18:06.316Z,94.50
2022-12-16T03:21:08.940Z,84.60
2022-12-16T03:24:14.029Z,85.40
2022-12-16T03:27:20.942Z,82.90
2022-12-16T03:30:28.871Z,83.30
2022-12-16T03:33:38.879Z,82.50
2022-12-16T03:36:42.194Z,83.20
2022-12-16T03:39:49.936Z,80.50
2022-12-16T03:42:53.223Z,80.10
2022-12-16T03:45:57.976Z,78.10
2022-12-16T03:48:59.827Z,77.50
2022-12-16T03:55:03.345Z,73.50
2022-12-16T03:58:05.023Z,75.80
2022-12-16T04:01:09.556Z,75.30
2022-12-16T04:04:11.490Z,73.50
2022-12-16T04:07:24.653Z,71.90
2022-12-16T04:10:45.546Z,72.00
2022-12-16T04:14:06.017Z,74.10
2022-12-16T04:17:31.116Z,68.90
2022-12-16T04:20:55.132Z,70.40
2022-12-16T04:24:16.168Z,74.40
2022-12-16T04:27:27.998Z,75.30
2022-12-16T04:30:34.589Z,70.50
2022-12-16T04:33:55.276Z,75.00
2022-12-16T04:37:17.901Z,67.10
2022-12-16T04:40:38.588Z,73.80
2022-12-16T04:43:59.835Z,71.20
2022-12-16T04:47:20.084Z,77.40
2022-12-16T04:50:40.480Z,77.80
2022-12-16T04:54:08.556Z,77.00
2022-12-16T04:57:29.132Z,71.60
2022-12-16T05:00:49.579Z,73.60
2022-12-16T05:04:09.822Z,69.30
2022-12-16T05:07:36.301Z,64.60
2022-12-16T05:10:58.384Z,67.30
2022-12-16T05:14:18.791Z,63.90
2022-12-16T05:17:40.046Z,68.70
2022-12-16T05:21:00.475Z,64.80
2022-12-16T05:24:21.059Z,64.50
2022-12-16T05:27:41.385Z,66.30
2022-12-16T05:31:01.867Z,68.00
2022-12-16T05:34:22.423Z,68.60
2022-12-16T05:37:42.760Z,69.10
2022-12-16T05:41:03.585Z,66.40
2022-12-16T05:44:24.462Z,68.50
2022-12-16T05:47:45.238Z,67.20
2022-12-16T05:51:05.642Z,66.70
2022-12-16T05:54:26.399Z,63.00
2022-12-16T05:57:46.761Z,64.90
2022-12-16T06:01:07.491Z,66.60
2022-12-16T06:04:27.942Z,62.50
2022-12-16T06:07:48.659Z,63.10
2022-12-16T06:11:09.240Z,66.40
2022-12-16T06:14:29.974Z,70.40
2022-12-16T06:17:50.197Z,56.40
2022-12-16T06:21:10.463Z,58.50
2022-12-16T06:24:30.926Z,61.90
2022-12-16T06:27:51.339Z,58.80
2022-12-16T06:31:11.896Z,61.30
2022-12-16T06:34:32.432Z,63.20
2022-12-16T06:37:52.768Z,59.00
2022-12-16T06:41:13.232Z,60.70
2022-12-16T06:44:33.650Z,60.10
2022-12-16T06:47:54.208Z,58.20
2022-12-16T06:51:14.657Z,104.90
2022-12-16T06:54:35.291Z,89.40
2022-12-16T06:57:55.712Z,64.90
2022-12-16T07:01:15.992Z,69.80
2022-12-16T07:04:36.446Z,56.60
2022-12-16T07:07:56.795Z,61.10
2022-12-16T07:11:17.675Z,67.90
2022-12-16T07:14:38.057Z,54.80
2022-12-16T07:17:59.560Z,52.60
2022-12-16T07:21:20.161Z,49.10
2022-12-16T07:24:40.715Z,49.30
2022-12-16T07:28:07.314Z,52.40
2022-12-16T07:31:30.272Z,52.10
2022-12-16T07:34:50.960Z,50.00
2022-12-16T07:38:11.423Z,45.60
2022-12-16T07:41:32.101Z,50.20
2022-12-16T07:44:52.638Z,51.30
2022-12-16T07:48:13.064Z,47.20
2022-12-16T07:51:33.389Z,45.40
2022-12-16T07:54:53.774Z,48.10
2022-12-16T07:58:16.171Z,45.50
2022-12-16T08:01:36.549Z,48.70
2022-12-16T08:04:56.788Z,50.30
2022-12-16T08:08:17.149Z,49.10
2022-12-16T08:11:37.494Z,49.30
2022-12-16T08:14:58.038Z,52.30
2022-12-16T08:18:18.636Z,49.90
2022-12-16T08:21:39.133Z,60.90
2022-12-16T08:24:59.675Z,48.20
2022-12-16T08:28:19.918Z,40.20
2022-12-16T08:31:40.390Z,39.90
2022-12-16T08:35:00.947Z,40.80
2022-12-16T08:38:21.499Z,39.80
2022-12-16T08:41:41.741Z,42.00
2022-12-16T08:45:02.004Z,46.50
2022-12-16T08:48:22.524Z,46.50
2022-12-16T08:51:43.103Z,45.00
2022-12-16T08:55:03.302Z,42.90
2022-12-16T08:58:23.803Z,43.30
2022-12-16T09:01:44.251Z,50.40
2022-12-16T09:05:04.612Z,43.70
2022-12-16T09:08:24.870Z,43.20
2022-12-16T09:11:45.525Z,41.70
2022-12-16T09:15:06.062Z,43.20
2022-12-16T09:18:26.729Z,39.50
2022-12-16T09:21:47.477Z,38.60
2022-12-16T09:25:11.790Z,38.20
2022-12-16T09:28:32.039Z,40.20
2022-12-16T09:31:52.581Z,38.20
2022-12-16T09:35:13.853Z,40.00
2022-12-16T09:38:34.738Z,37.60
2022-12-16T09:42:17.942Z,39.40
2022-12-16T09:45:45.636Z,42.40
2022-12-16T09:49:26.029Z,38.00
2022-12-16T09:52:47.769Z,47.20
2022-12-16T09:56:08.316Z,38.60
2022-12-16T09:59:32.710Z,35.70
2022-12-16T10:02:53.084Z,34.80
2022-12-16T10:06:28.443Z,36.90
2022-12-16T10:10:00.039Z,37.90
2022-12-16T10:13:42.864Z,45.20
2022-12-16T10:17:40.297Z,44.90
2022-12-16T10:21:08.639Z,36.60
2022-12-16T10:24:41.856Z,37.60
2022-12-16T10:28:08.186Z,37.50
2022-12-16T10:31:32.735Z,35.70
2022-12-16T10:34:54.535Z,36.40
2022-12-16T10:38:16.004Z,37.80
2022-12-16T10:41:37.294Z,39.10
2022-12-16T10:45:08.553Z,35.90
2022-12-16T10:48:30.453Z,37.70
2022-12-16T10:51:51.283Z,44.20
2022-12-16T10:55:37.802Z,37.50
2022-12-16T10:59:06.445Z,34.80
2022-12-16T11:02:38.411Z,36.70
2022-12-16T11:05:59.312Z,36.70
2022-12-16T11:09:52.273Z,38.00
2022-12-16T11:13:13.635Z,40.00
2022-12-16T11:16:46.098Z,37.80
2022-12-16T11:20:38.224Z,41.30
2022-12-16T11:23:58.648Z,45.50
2022-12-16T11:27:22.295Z,44.60
2022-12-16T11:30:42.989Z,41.50
2022-12-16T11:34:04.133Z,43.80
2022-12-16T11:37:24.544Z,45.30
2022-12-16T11:40:45.068Z,47.00
2022-12-16T11:44:09.167Z,50.60
2022-12-16T11:47:39.995Z,46.50
2022-12-16T11:51:09.305Z,46.10
2022-12-16T11:54:50.721Z,48.80
2022-12-16T11:58:29.486Z,50.10
2022-12-16T12:02:08.081Z,49.60
2022-12-16T12:05:33.274Z,51.60
2022-12-16T12:09:23.249Z,56.80
2022-12-16T12:12:55.504Z,53.30
2022-12-16T12:16:27.904Z,50.60
2022-12-16T12:20:12.357Z,53.10
2022-12-16T12:23:40.050Z,54.40
2022-12-16T12:27:05.645Z,55.10
2022-12-16T12:30:31.071Z,54.20
2022-12-16T12:34:10.356Z,55.90
2022-12-16T12:37:43.880Z,59.10
2022-12-16T12:41:44.148Z,56.40
2022-12-16T12:45:38.989Z,62.00
2022-12-16T12:49:09.682Z,59.40
2022-12-16T12:53:06.186Z,54.00
2022-12-16T12:57:01.243Z,54.10
2022-12-16T13:00:38.047Z,57.70
2022-12-16T13:04:22.962Z,59.80
2022-12-16T13:07:43.369Z,57.40
2022-12-16T13:11:03.683Z,60.70
2022-12-16T13:15:05.692Z,62.30
2022-12-16T13:18:26.074Z,66.90
2022-12-16T13:21:56.388Z,70.50
2022-12-16T13:25:22.299Z,69.50
2022-12-16T13:28:51.041Z,70.90
2022-12-16T13:32:20.266Z,77.10
2022-12-16T13:35:40.752Z,77.00
2022-12-16T13:39:09.377Z,82.40
2022-12-16T13:42:52.124Z,76.90
2022-12-16T13:46:18.963Z,82.90
2022-12-16T13:49:54.872Z,89.00
2022-12-16T13:53:17.669Z,87.80
2022-12-16T13:56:50.680Z,90.00
2022-12-16T14:00:12.026Z,90.60
2022-12-16T14:03:38.567Z,89.20
2022-12-16T14:06:59.627Z,94.80
2022-12-16T14:10:20.187Z,95.00
2022-12-16T14:13:40.381Z,92.60
2022-12-16T14:17:10.619Z,100.30
2022-12-16T14:20:35.910Z,105.10
2022-12-16T14:24:01.262Z,103.30
2022-12-16T14:27:49.501Z,97.80
2022-12-16T14:31:24.830Z,100.50
2022-12-16T14:34:54.068Z,98.30
2022-12-16T14:38:14.731Z,100.70
2022-12-16T14:41:40.414Z,99.00
2022-12-16T14:45:03.831Z,116.70
2022-12-16T14:48:43.180Z,105.70
2022-12-16T14:52:08.135Z,103.70
2022-12-16T14:55:36.636Z,99.70
2022-12-16T14:58:56.983Z,99.30
2022-12-16T15:02:27.567Z,97.20
2022-12-16T15:05:53.234Z,94.40
2022-12-16T15:09:16.894Z,99.90
2022-12-16T15:12:40.673Z,94.60
2022-12-16T15:16:04.393Z,100.30
2022-12-16T15:19:25.183Z,95.50
2022-12-16T15:22:45.910Z,95.10
2022-12-16T15:26:11.274Z,106.40
2022-12-16T15:29:50.486Z,97.70
2022-12-16T15:33:11.365Z,93.00
2022-12-16T15:36:52.297Z,94.10
2022-12-16T15:40:12.868Z,93.40
2022-12-16T15:43:40.490Z,98.90
2022-12-16T15:47:06.870Z,100.90
2022-12-16T15:50:31.884Z,102.10
2022-12-16T15:53:55.831Z,100.20
2022-12-16T15:57:16.382Z,94.90
2022-12-16T16:00:42.168Z,98.10
2022-12-16T16:04:11.458Z,99.90
2022-12-16T16:07:45.185Z,110.30
2022-12-16T16:11:06.183Z,107.90
2022-12-16T16:14:26.916Z,112.30
2022-12-16T16:17:47.330Z,108.90
2022-12-16T16:21:08.406Z,103.20
2022-12-16T16:24:29.213Z,103.20
2022-12-16T16:27:49.607Z,111.40
2022-12-16T16:31:10.136Z,109.90
2022-12-16T16:34:31.514Z,104.90
2022-12-16T16:37:51.989Z,100.10
2022-12-16T16:41:12.423Z,103.80
2022-12-16T16:44:33.435Z,109.00
2022-12-16T16:47:54.337Z,106.20
2022-12-16T16:51:16.468Z,102.80
2022-12-16T16:57:57.339Z,111.10
2022-12-16T17:01:17.679Z,108.10
2022-12-16T17:04:38.716Z,113.90
2022-12-16T17:07:59.153Z,117.20
2022-12-16T17:11:19.413Z,164.00
2022-12-16T17:14:40.039Z,118.00
2022-12-16T17:18:00.934Z,113.40
2022-12-16T17:21:21.507Z,127.60
2022-12-16T17:24:46.990Z,162.70
2022-12-16T17:28:08.624Z,127.30
2022-12-16T17:31:29.617Z,117.00
2022-12-16T17:34:50.117Z,123.00
2022-12-16T17:38:10.398Z,121.10
2022-12-16T17:41:30.487Z,124.50
2022-12-16T17:44:50.893Z,122.70
2022-12-16T17:48:11.383Z,124.20
2022-12-16T17:51:31.777Z,138.00
2022-12-16T17:54:52.009Z,129.90
2022-12-16T17:58:12.522Z,131.50
2022-12-16T18:01:32.889Z,142.00
2022-12-16T18:04:53.574Z,150.30
2022-12-16T18:08:15.167Z,155.40
2022-12-16T18:11:38.717Z,145.60
2022-12-16T18:14:59.676Z,143.70
2022-12-16T18:18:20.530Z,156.50
2022-12-16T18:21:40.780Z,138.70
2022-12-16T18:25:01.788Z,144.40
2022-12-16T18:28:22.525Z,155.70
2022-12-16T18:31:42.946Z,155.40
2022-12-16T18:35:03.136Z,147.50
2022-12-16T18:38:23.958Z,144.10
2022-12-16T18:41:44.930Z,136.90
2022-12-16T18:45:11.098Z,131.20
2022-12-16T18:48:31.653Z,139.70
2022-12-16T18:51:52.871Z,139.50
2022-12-16T18:55:13.030Z,138.40
2022-12-16T19:02:13.917Z,147.70
2022-12-16T19:05:34.753Z,142.40
2022-12-16T19:08:55.119Z,151.30
2022-12-16T19:12:16.700Z,136.80
2022-12-16T19:15:41.205Z,139.00
2022-12-16T19:19:02.616Z,136.70
2022-12-16T19:22:23.308Z,130.00
2022-12-16T19:25:54.411Z,121.10
2022-12-16T19:29:17.007Z,133.40
2022-12-16T19:32:37.653Z,122.30
2022-12-16T19:36:14.929Z,121.30
2022-12-16T19:39:35.262Z,120.00
2022-12-16T19:42:55.919Z,120.10
2022-12-16T19:46:16.555Z,125.20
2022-12-16T19:49:42.360Z,123.90
2022-12-16T19:53:04.302Z,135.00
2022-12-16T19:56:25.216Z,137.50
2022-12-16T19:59:45.521Z,131.00
2022-12-16T20:03:06.420Z,140.70
2022-12-16T20:06:28.165Z,212.10
2022-12-16T20:09:48.468Z,144.90
2022-12-16T20:13:09.035Z,137.60
2022-12-16T20:16:31.086Z,150.70
2022-12-16T20:19:51.480Z,141.70
2022-12-16T20:23:14.431Z,137.90
2022-12-16T20:26:34.694Z,136.80
2022-12-16T20:29:56.452Z,127.00
2022-12-16T20:33:17.202Z,123.00
2022-12-16T20:36:38.114Z,116.50
2022-12-16T20:39:58.750Z,116.70
2022-12-16T20:43:19.484Z,122.50
2022-12-16T20:46:39.894Z,123.00
2022-12-16T20:50:00.454Z,136.40
2022-12-16T20:53:20.861Z,135.80
2022-12-16T20:56:41.359Z,131.70
2022-12-16T21:00:02.208Z,125.00
2022-12-16T21:03:44.351Z,131.20
2022-12-16T21:07:05.252Z,130.40
2022-12-16T21:10:26.161Z,130.20
2022-12-16T21:13:46.925Z,127.40
2022-12-16T21:17:07.553Z,119.20
2022-12-16T21:20:28.378Z,120.30
2022-12-16T21:23:49.020Z,124.50
2022-12-16T21:27:09.481Z,123.90
2022-12-16T21:30:30.236Z,128.00
2022-12-16T21:33:51.366Z,124.70
2022-12-16T21:37:12.224Z,123.50
2022-12-16T21:40:32.988Z,127.60
2022-12-16T21:43:53.427Z,127.20
2022-12-16T21:47:13.653Z,125.30
2022-12-16T21:50:35.732Z,113.60
2022-12-16T21:57:17.422Z,127.50
2022-12-16T22:00:38.016Z,136.40
2022-12-16T22:03:58.578Z,136.40
2022-12-16T22:07:19.292Z,142.80
2022-12-16T22:10:40.181Z,148.30
2022-12-16T22:14:00.644Z,146.00
2022-12-16T22:17:21.483Z,162.50
2022-12-16T22:20:41.802Z,159.50
2022-12-16T22:24:02.185Z,154.10
2022-12-16T22:27:22.899Z,164.80
2022-12-16T22:30:44.956Z,169.70
2022-12-16T22:37:30.206Z,178.80
2022-12-16T22:40:50.678Z,170.40
2022-12-16T22:44:10.896Z,175.10
2022-12-16T22:47:51.250Z,177.60
2022-12-16T22:51:12.231Z,175.40
2022-12-16T22:54:32.694Z,177.60
2022-12-16T22:57:53.510Z,188.80
2022-12-16T23:01:14.210Z,179.70
2022-12-16T23:04:35.039Z,177.00
2022-12-16T23:07:55.546Z,178.50
2022-12-16T23:11:18.451Z,172.90
2022-12-16T23:18:03.552Z,182.20
2022-12-16T23:21:34.014Z,181.10
2022-12-16T23:24:54.548Z,174.70
2022-12-16T23:28:14.998Z,182.30
2022-12-16T23:31:35.244Z,171.90
2022-12-16T23:34:55.797Z,183.00
2022-12-16T23:38:23.486Z,176.30
2022-12-16T23:41:44.401Z,184.40
2022-12-16T23:45:04.745Z,194.20
2022-12-16T23:48:44.472Z,181.70
2022-12-16T23:52:04.854Z,201.20
2022-12-16T23:55:25.581Z,197.80
2022-12-16T23:58:46.025Z,196.50
